createdAt,value
2022-11-29T00:02:43.262Z,98164.91
2022-11-29T00:05:45.855Z,98162.38
2022-11-29T00:08:47.826Z,98163.25
2022-11-29T00:12:09.226Z,98164.91
2022-11-29T00:15:10.957Z,98157.03
2022-11-29T00:18:12.480Z,98164.03
2022-11-29T00:21:13.936Z,98163.94
2022-11-29T00:24:15.527Z,98160.38
2022-11-29T00:27:18.389Z,98164.00
2022-11-29T00:30:20.309Z,98167.50
2022-11-29T00:33:21.961Z,98168.41
2022-11-29T00:36:24.363Z,98160.44
2022-11-29T00:39:28.513Z,98162.22
2022-11-29T00:42:31.413Z,98159.72
2022-11-29T00:45:32.854Z,98166.00
2022-11-29T00:48:34.446Z,98165.03
2022-11-29T00:51:36.080Z,98161.28
2022-11-29T00:54:37.772Z,98163.91
2022-11-29T00:57:40.824Z,98164.81
2022-11-29T01:00:42.530Z,98162.22
2022-11-29T01:03:44.386Z,98170.09
2022-11-29T01:06:46.031Z,98161.28
2022-11-29T01:09:47.549Z,98159.50
2022-11-29T01:12:50.373Z,98166.69
2022-11-29T01:15:55.028Z,98168.47
2022-11-29T01:18:56.499Z,98170.25
2022-11-29T01:21:57.935Z,98174.56
2022-11-29T01:24:59.376Z,98168.47
2022-11-29T01:28:02.238Z,98173.81
2022-11-29T01:31:07.461Z,98184.28
2022-11-29T01:34:12.480Z,98175.44
2022-11-29T01:37:14.041Z,98177.28
2022-11-29T01:40:15.660Z,98174.56
2022-11-29T01:43:18.753Z,98179.63
2022-11-29T01:46:20.364Z,98181.34
2022-11-29T01:49:24.014Z,98178.72
2022-11-29T01:52:28.069Z,98178.75
2022-11-29T01:55:29.576Z,98183.25
2022-11-29T01:58:33.288Z,98185.22
2022-11-29T02:01:35.225Z,98189.69
2022-11-29T02:04:37.934Z,98194.19
2022-11-29T02:07:40.162Z,98181.88
2022-11-29T02:10:49.634Z,98194.25
2022-11-29T02:13:57.764Z,98190.78
2022-11-29T02:17:01.844Z,98190.78
2022-11-29T02:20:16.013Z,98181.94
2022-11-29T02:23:32.222Z,98185.50
2022-11-29T02:26:55.191Z,98190.78
2022-11-29T02:30:06.747Z,98194.25
2022-11-29T02:33:17.632Z,98202.16
2022-11-29T02:36:37.123Z,98200.31
2022-11-29T02:39:49.441Z,98201.25
2022-11-29T02:43:04.039Z,98199.53
2022-11-29T02:46:11.770Z,98204.03
2022-11-29T02:49:22.454Z,98201.28
2022-11-29T02:52:29.760Z,98205.63
2022-11-29T02:55:34.811Z,98204.66
2022-11-29T02:58:38.618Z,98208.16
2022-11-29T03:01:45.078Z,98206.38
2022-11-29T03:04:50.389Z,98206.31
2022-11-29T03:07:56.127Z,98209.78
2022-11-29T03:11:02.276Z,98213.38
2022-11-29T03:14:13.169Z,98216.16
2022-11-29T03:17:20.286Z,98214.31
2022-11-29T03:20:29.031Z,98223.22
2022-11-29T03:23:33.487Z,98222.47
2022-11-29T03:26:39.052Z,98220.69
2022-11-29T03:29:43.508Z,98228.50
2022-11-29T03:32:47.899Z,98239.97
2022-11-29T03:35:56.908Z,98236.28
2022-11-29T03:39:00.959Z,98238.13
2022-11-29T03:42:03.413Z,98234.66
2022-11-29T03:45:08.186Z,98240.06
2022-11-29T03:48:11.911Z,98233.03
2022-11-29T03:51:18.782Z,98241.97
2022-11-29T03:54:22.492Z,98237.59
2022-11-29T03:57:28.208Z,98246.59
2022-11-29T04:00:35.755Z,98250.22
2022-11-29T04:03:55.105Z,98247.69
2022-11-29T04:07:05.268Z,98247.63
2022-11-29T04:10:14.879Z,98251.03
2022-11-29T04:13:30.501Z,98251.97
2022-11-29T04:16:46.124Z,98256.34
2022-11-29T04:20:02.542Z,98255.47
2022-11-29T04:23:22.651Z,98250.22
2022-11-29T04:26:42.029Z,98250.19
2022-11-29T04:29:55.687Z,98252.81
2022-11-29T04:33:16.651Z,98252.88
2022-11-29T04:36:38.668Z,98262.53
2022-11-29T04:39:48.025Z,98268.69
2022-11-29T04:42:55.135Z,98265.13
2022-11-29T04:46:14.164Z,98267.78
2022-11-29T04:49:36.779Z,98267.81
2022-11-29T04:52:59.493Z,98271.38
2022-11-29T04:56:08.083Z,98281.16
2022-11-29T04:59:14.645Z,98276.56
2022-11-29T05:02:24.494Z,98279.28
2022-11-29T05:05:33.099Z,98288.13
2022-11-29T05:08:45.302Z,98283.81
2022-11-29T05:11:57.180Z,98286.41
2022-11-29T05:15:14.530Z,98290.88
2022-11-29T05:18:22.236Z,98287.25
2022-11-29T05:21:29.702Z,98288.94
2022-11-29T05:24:39.711Z,98293.47
2022-11-29T05:27:45.385Z,98290.81
2022-11-29T05:31:01.856Z,98304.91
2022-11-29T05:34:19.072Z,98310.41
2022-11-29T05:37:27.915Z,98311.25
2022-11-29T05:40:53.414Z,98320.09
2022-11-29T05:43:59.894Z,98324.50
2022-11-29T05:47:03.941Z,98321.75
2022-11-29T05:50:11.431Z,98319.84
2022-11-29T05:53:17.505Z,98326.00
2022-11-29T05:56:26.087Z,98324.19
2022-11-29T05:59:28.441Z,98323.06
2022-11-29T06:02:39.653Z,98336.13
2022-11-29T06:05:47.780Z,98330.88
2022-11-29T06:08:54.840Z,98336.06
2022-11-29T06:12:02.562Z,98340.50
2022-11-29T06:15:16.472Z,98345.78
2022-11-29T06:18:26.048Z,98359.94
2022-11-29T06:21:36.795Z,98352.03
2022-11-29T06:24:45.477Z,98352.84
2022-11-29T06:27:57.634Z,98360.91
2022-11-29T06:31:02.993Z,98351.34
2022-11-29T06:34:09.307Z,98350.47
2022-11-29T06:37:15.508Z,98353.06
2022-11-29T06:40:19.559Z,98359.13
2022-11-29T06:43:21.392Z,98363.47
2022-11-29T06:46:27.039Z,98366.09
2022-11-29T06:49:30.716Z,98370.41
2022-11-29T06:52:37.723Z,98376.50
2022-11-29T06:55:42.820Z,98370.31
2022-11-29T06:58:51.496Z,98382.63
2022-11-29T07:01:56.218Z,98383.63
2022-11-29T07:05:03.111Z,98374.94
2022-11-29T07:08:10.718Z,98381.19
2022-11-29T07:11:13.468Z,98385.50
2022-11-29T07:14:15.321Z,98390.00
2022-11-29T07:17:22.234Z,98396.97
2022-11-29T07:20:28.562Z,98398.69
2022-11-29T07:23:34.685Z,98410.19
2022-11-29T07:26:39.064Z,98409.19
2022-11-29T07:29:42.849Z,98419.66
2022-11-29T07:32:55.926Z,98419.56
2022-11-29T07:36:06.975Z,98422.91
2022-11-29T07:39:17.831Z,98421.13
2022-11-29T07:42:23.502Z,98428.22
2022-11-29T07:45:27.394Z,98430.84
2022-11-29T07:48:28.848Z,98430.84
2022-11-29T07:51:31.157Z,98434.47
2022-11-29T07:54:34.229Z,98439.66
2022-11-29T07:57:36.975Z,98438.13
2022-11-29T08:00:38.685Z,98441.75
2022-11-29T08:03:41.380Z,98450.69
2022-11-29T08:06:43.119Z,98449.88
2022-11-29T08:09:46.139Z,98454.16
2022-11-29T08:12:48.801Z,98452.53
2022-11-29T08:15:50.270Z,98462.97
2022-11-29T08:18:54.310Z,98453.19
2022-11-29T08:21:55.731Z,98455.63
2022-11-29T08:24:59.925Z,98454.81
2022-11-29T08:28:01.932Z,98457.66
2022-11-29T08:31:04.418Z,98461.19
2022-11-29T08:34:06.495Z,98466.53
2022-11-29T08:37:07.995Z,98468.25
2022-11-29T08:40:11.709Z,98468.09
2022-11-29T08:43:13.218Z,98468.19
2022-11-29T08:46:18.571Z,98475.13
2022-11-29T08:49:20.148Z,98482.00
2022-11-29T08:52:40.416Z,98475.63
2022-11-29T08:55:46.762Z,98489.63
2022-11-29T08:58:48.362Z,98484.22
2022-11-29T09:01:49.849Z,98488.50
2022-11-29T09:04:51.375Z,98484.09
2022-11-29T09:07:52.973Z,98492.19
2022-11-29T09:10:55.932Z,98498.28
2022-11-29T09:13:58.947Z,98501.75
2022-11-29T09:17:00.480Z,98506.03
2022-11-29T09:20:05.034Z,98506.13
2022-11-29T09:23:06.441Z,98518.50
2022-11-29T09:26:10.474Z,98516.66
2022-11-29T09:29:12.247Z,98521.84
2022-11-29T09:32:13.769Z,98514.78
2022-11-29T09:35:15.250Z,98526.13
2022-11-29T09:38:16.750Z,98532.25
2022-11-29T09:41:30.491Z,98526.13
2022-11-29T09:44:38.975Z,98527.81
2022-11-29T09:47:57.892Z,98529.53
2022-11-29T09:51:04.718Z,98532.19
2022-11-29T09:54:15.269Z,98528.63
2022-11-29T09:57:19.286Z,98534.63
2022-11-29T10:00:21.358Z,98531.94
2022-11-29T10:03:25.437Z,98535.44
2022-11-29T10:06:28.226Z,98523.00
2022-11-29T10:09:33.979Z,98528.97
2022-11-29T10:12:39.906Z,98529.84
2022-11-29T10:15:43.265Z,98539.56
2022-11-29T10:18:48.430Z,98535.16
2022-11-29T10:21:57.289Z,98535.94
2022-11-29T10:25:02.410Z,98534.97
2022-11-29T10:28:09.758Z,98532.47
2022-11-29T10:31:16.320Z,98533.38
2022-11-29T10:34:19.743Z,98533.25
2022-11-29T10:37:21.652Z,98527.75
2022-11-29T10:40:27.302Z,98538.28
2022-11-29T10:43:30.433Z,98541.84
2022-11-29T10:46:33.576Z,98541.72
2022-11-29T10:49:37.395Z,98539.88
2022-11-29T10:52:39.355Z,98547.72
2022-11-29T10:55:43.351Z,98542.66
2022-11-29T10:58:55.027Z,98547.25
2022-11-29T11:01:57.220Z,98544.66
2022-11-29T11:05:01.272Z,98539.25
2022-11-29T11:08:05.465Z,98539.19
2022-11-29T11:11:08.212Z,98535.59
2022-11-29T11:14:19.464Z,98536.38
2022-11-29T11:17:22.591Z,98536.38
2022-11-29T11:20:25.908Z,98530.09
2022-11-29T11:23:29.922Z,98537.06
2022-11-29T11:26:41.807Z,98539.66
2022-11-29T11:29:45.002Z,98537.97
2022-11-29T11:33:01.330Z,98536.16
2022-11-29T11:36:07.612Z,98536.00
2022-11-29T11:39:10.727Z,98534.25
2022-11-29T11:42:32.408Z,98538.59
2022-11-29T11:45:36.717Z,98546.53
2022-11-29T11:48:40.174Z,98548.31
2022-11-29T11:51:42.375Z,98551.72
2022-11-29T11:54:45.499Z,98554.47
2022-11-29T11:57:47.606Z,98550.81
2022-11-29T12:01:07.140Z,98550.75
2022-11-29T12:04:12.597Z,98554.31
2022-11-29T12:07:17.949Z,98561.34
2022-11-29T12:10:22.483Z,98561.25
2022-11-29T12:13:27.335Z,98552.31
2022-11-29T12:16:33.165Z,98558.59
2022-11-29T12:19:38.805Z,98565.03
2022-11-29T12:22:48.062Z,98565.09
2022-11-29T12:25:52.523Z,98566.84
2022-11-29T12:28:54.145Z,98579.13
2022-11-29T12:32:02.097Z,98578.28
2022-11-29T12:35:18.812Z,98575.53
2022-11-29T12:38:28.303Z,98581.63
2022-11-29T12:41:35.086Z,98586.94
2022-11-29T12:44:43.117Z,98589.59
2022-11-29T12:47:52.165Z,98589.53
2022-11-29T12:50:58.072Z,98581.59
2022-11-29T12:54:10.672Z,98593.06
2022-11-29T12:57:16.641Z,98589.53
2022-11-29T13:00:19.780Z,98593.97
2022-11-29T13:03:27.019Z,98598.47
2022-11-29T13:06:33.556Z,98593.09
2022-11-29T13:09:51.009Z,98601.09
2022-11-29T13:12:53.647Z,98593.16
2022-11-29T13:16:00.659Z,98600.28
2022-11-29T13:19:09.194Z,98599.31
2022-11-29T13:22:15.177Z,98602.03
2022-11-29T13:25:19.056Z,98607.31
2022-11-29T13:28:22.897Z,98603.66
2022-11-29T13:31:25.591Z,98602.78
2022-11-29T13:34:30.954Z,98606.31
2022-11-29T13:37:37.766Z,98610.75
2022-11-29T13:40:46.747Z,98607.22
2022-11-29T13:43:53.912Z,98603.66
2022-11-29T13:47:02.491Z,98608.88
2022-11-29T13:50:06.471Z,98612.34
2022-11-29T13:53:13.682Z,98607.06
2022-11-29T13:56:25.087Z,98607.00
2022-11-29T13:59:28.068Z,98609.66
2022-11-29T14:02:31.418Z,98613.28
2022-11-29T14:05:38.096Z,98617.75
2022-11-29T14:09:17.329Z,98616.84
2022-11-29T14:12:04.930Z,98615.94
2022-11-29T14:15:18.864Z,98624.69
2022-11-29T14:18:49.296Z,98622.03
2022-11-29T14:22:09.396Z,98627.44
2022-11-29T14:25:50.518Z,98626.56
2022-11-29T14:28:48.980Z,98623.06
2022-11-29T14:31:53.238Z,98629.19
2022-11-29T14:34:58.093Z,98636.16
2022-11-29T14:38:04.699Z,98635.25
2022-11-29T14:41:14.092Z,98636.25
2022-11-29T14:44:19.110Z,98625.72
2022-11-29T14:47:25.339Z,98635.47
2022-11-29T14:50:32.037Z,98639.88
2022-11-29T14:53:35.664Z,98647.78
2022-11-29T14:56:44.545Z,98645.03
2022-11-29T14:59:50.695Z,98637.94
2022-11-29T15:02:53.146Z,98644.13
2022-11-29T15:05:56.746Z,98642.38
2022-11-29T15:09:01.945Z,98645.91
2022-11-29T15:12:08.330Z,98650.28
2022-11-29T15:15:20.951Z,98650.19
2022-11-29T15:18:30.097Z,98648.41
2022-11-29T15:21:34.355Z,98663.44
2022-11-29T15:24:49.535Z,98661.72
2022-11-29T15:27:52.572Z,98663.50
2022-11-29T15:31:03.303Z,98659.97
2022-11-29T15:34:05.076Z,98663.44
2022-11-29T15:37:06.689Z,98665.28
2022-11-29T15:40:11.817Z,98663.50
2022-11-29T15:43:15.375Z,98660.06
2022-11-29T15:46:20.433Z,98659.09
2022-11-29T15:49:24.001Z,98666.25
2022-11-29T15:52:28.895Z,98665.38
2022-11-29T15:55:30.642Z,98663.53
2022-11-29T15:58:33.690Z,98666.16
2022-11-29T16:01:38.807Z,98670.56
2022-11-29T16:04:46.548Z,98676.78
2022-11-29T16:07:50.306Z,98665.31
2022-11-29T16:10:53.365Z,98676.78
2022-11-29T16:14:00.819Z,98669.75
2022-11-29T16:17:05.365Z,98681.28
2022-11-29T16:20:23.562Z,98676.69
2022-11-29T16:23:32.618Z,98681.09
2022-11-29T16:26:36.326Z,98682.84
2022-11-29T16:29:42.079Z,98688.97
2022-11-29T16:32:54.385Z,98684.50
2022-11-29T16:36:06.172Z,98687.94
2022-11-29T16:39:16.960Z,98686.97
2022-11-29T16:42:25.873Z,98690.59
2022-11-29T16:45:32.574Z,98688.00
2022-11-29T16:48:38.276Z,98691.38
2022-11-29T16:51:45.783Z,98693.91
2022-11-29T16:54:47.642Z,98693.03
2022-11-29T16:57:49.539Z,98696.56
2022-11-29T17:00:51.489Z,98697.53
2022-11-29T17:03:55.836Z,98699.25
2022-11-29T17:06:57.490Z,98705.44
2022-11-29T17:09:59.473Z,98701.88
2022-11-29T17:13:04.486Z,98713.44
2022-11-29T17:16:11.742Z,98710.72
2022-11-29T17:19:14.954Z,98712.53
2022-11-29T17:22:16.642Z,98710.72
2022-11-29T17:25:18.140Z,98716.97
2022-11-29T17:28:19.642Z,98719.59
2022-11-29T17:31:22.816Z,98717.78
2022-11-29T17:34:25.925Z,98725.72
2022-11-29T17:37:28.103Z,98714.09
2022-11-29T17:40:29.671Z,98722.06
2022-11-29T17:43:33.097Z,98725.56
2022-11-29T17:46:35.382Z,98731.84
2022-11-29T17:49:38.264Z,98731.03
2022-11-29T17:52:40.851Z,98731.84
2022-11-29T17:55:42.409Z,98730.22
2022-11-29T17:58:43.922Z,98737.25
2022-11-29T18:01:47.287Z,98741.59
2022-11-29T18:04:50.392Z,98739.97
2022-11-29T18:08:00.541Z,98746.13
2022-11-29T18:11:02.752Z,98743.47
2022-11-29T18:14:04.451Z,98743.47
2022-11-29T18:17:06.062Z,98746.19
2022-11-29T18:20:10.036Z,98740.97
2022-11-29T18:23:11.699Z,98743.63
2022-11-29T18:26:14.112Z,98755.09
2022-11-29T18:29:15.646Z,98752.47
2022-11-29T18:32:17.179Z,98755.88
2022-11-29T18:35:20.122Z,98758.47
2022-11-29T18:38:21.583Z,98756.72
2022-11-29T18:41:23.840Z,98750.56
2022-11-29T18:44:29.351Z,98750.56
2022-11-29T18:47:33.006Z,98757.56
2022-11-29T18:50:35.993Z,98753.16
2022-11-29T18:53:38.886Z,98753.16
2022-11-29T18:56:40.755Z,98754.91
2022-11-29T18:59:42.290Z,98754.91
2022-11-29T19:02:43.741Z,98763.69
2022-11-29T19:05:51.561Z,98763.56
2022-11-29T19:08:53.548Z,98758.22
2022-11-29T19:11:55.040Z,98762.59
2022-11-29T19:14:56.700Z,98762.59
2022-11-29T19:17:58.255Z,98755.56
2022-11-29T19:21:07.681Z,98759.06
2022-11-29T19:24:14.032Z,98760.88
2022-11-29T19:27:16.413Z,98761.84
2022-11-29T19:30:18.071Z,98765.31
2022-11-29T19:33:19.533Z,98764.44
2022-11-29T19:36:23.822Z,98765.31
2022-11-29T19:39:25.590Z,98764.44
2022-11-29T19:42:27.030Z,98762.66
2022-11-29T19:45:28.570Z,98766.16
2022-11-29T19:48:30.119Z,98760.84
2022-11-29T19:51:33.359Z,98766.13
2022-11-29T19:54:34.995Z,98776.69
2022-11-29T19:57:37.311Z,98779.31
2022-11-29T20:00:38.822Z,98774.94
2022-11-29T20:03:40.710Z,98770.56
2022-11-29T20:06:44.460Z,98773.25
2022-11-29T20:09:46.224Z,98775.91
2022-11-29T20:12:48.049Z,98782.13
2022-11-29T20:15:49.601Z,98785.66
2022-11-29T20:18:51.739Z,98792.75
2022-11-29T20:21:54.752Z,98784.78
2022-11-29T20:24:56.328Z,98781.31
2022-11-29T20:27:58.255Z,98785.72
2022-11-29T20:31:04.703Z,98790.09
2022-11-29T20:34:07.022Z,98789.22
2022-11-29T20:37:21.116Z,98789.31
2022-11-29T20:40:24.306Z,98786.72
2022-11-29T20:43:32.982Z,98786.72
2022-11-29T20:46:34.711Z,98783.22
2022-11-29T20:49:36.446Z,98776.03
2022-11-29T20:52:44.644Z,98790.19
2022-11-29T20:55:48.359Z,98797.22
2022-11-29T20:58:50.148Z,98783.97
2022-11-29T21:01:51.779Z,98783.09
2022-11-29T21:04:53.237Z,98799.94
2022-11-29T21:07:56.374Z,98797.28
2022-11-29T21:11:01.754Z,98801.66
2022-11-29T21:14:04.661Z,98800.66
2022-11-29T21:17:06.443Z,98799.78
2022-11-29T21:20:08.787Z,98798.91
2022-11-29T21:23:18.631Z,98796.16
2022-11-29T21:26:23.176Z,98795.25
2022-11-29T21:29:24.964Z,98794.38
2022-11-29T21:32:27.394Z,98802.28
2022-11-29T21:35:28.848Z,98797.91
2022-11-29T21:38:32.068Z,98802.34
2022-11-29T21:41:33.863Z,98807.63
2022-11-29T21:44:35.338Z,98804.97
2022-11-29T21:47:37.005Z,98806.72
2022-11-29T21:50:38.780Z,98812.91
2022-11-29T21:53:42.291Z,98815.59
2022-11-29T21:56:47.046Z,98814.72
2022-11-29T21:59:48.657Z,98821.00
2022-11-29T22:02:50.313Z,98808.75
2022-11-29T22:05:51.983Z,98814.94
2022-11-29T22:08:54.911Z,98814.16
2022-11-29T22:11:58.220Z,98816.81
2022-11-29T22:14:59.708Z,98821.25
2022-11-29T22:18:01.532Z,98820.44
2022-11-29T22:21:04.006Z,98824.88
2022-11-29T22:24:07.607Z,98811.56
2022-11-29T22:27:09.077Z,98808.91
2022-11-29T22:30:11.041Z,98815.06
2022-11-29T22:33:13.615Z,98818.53
2022-11-29T22:36:15.196Z,98821.16
2022-11-29T22:39:18.238Z,98820.28
2022-11-29T22:42:19.802Z,98820.34
2022-11-29T22:45:21.302Z,98819.47
2022-11-29T22:48:23.203Z,98813.28
2022-11-29T22:51:26.138Z,98822.19
2022-11-29T22:54:29.096Z,98823.94
2022-11-29T22:57:30.565Z,98822.19
2022-11-29T23:00:33.856Z,98829.25
2022-11-29T23:03:35.758Z,98828.38
2022-11-29T23:06:38.593Z,98827.47
2022-11-29T23:09:41.534Z,98822.19
2022-11-29T23:12:44.584Z,98831.03
2022-11-29T23:15:46.141Z,98824.75
2022-11-29T23:18:47.967Z,98827.38
2022-11-29T23:21:49.596Z,98824.72
2022-11-29T23:24:52.576Z,98814.97
2022-11-29T23:27:54.509Z,98820.38
2022-11-29T23:30:56.061Z,98818.53
2022-11-29T23:33:57.600Z,98817.69
2022-11-29T23:36:59.183Z,98814.97
2022-11-29T23:40:02.093Z,98817.69
2022-11-29T23:43:03.650Z,98823.03
2022-11-29T23:46:05.686Z,98823.94
2022-11-29T23:49:07.426Z,98832.78
2022-11-29T23:52:08.930Z,98831.84
2022-11-29T23:55:14.743Z,98837.16
2022-11-29T23:58:16.327Z,98838.84
